sensor_id;sensor_type;location;lat;lon;timestamp;P1;durP1;ratioP1;P2;durP2;ratioP2
1682;SDS011;13252;53.596;10.060;2023-06-01T00:02:19;20.03;;;10.20;;
1682;SDS011;13252;53.596;10.060;2023-06-01T00:04:46;16.97;;;9.73;;
1682;SDS011;13252;53.596;10.060;2023-06-01T00:07:14;21.73;;;10.27;;
1682;SDS011;13252;53.596;10.060;2023-06-01T00:09:42;22.43;;;9.77;;
1682;SDS011;13252;53.596;10.060;2023-06-01T00:12:11;16.63;;;9.43;;
1682;SDS011;13252;53.596;10.060;2023-06-01T00:14:39;22.37;;;8.60;;
1682;SDS011;13252;53.596;10.060;2023-06-01T00:17:07;14.93;;;8.40;;
1682;SDS011;13252;53.596;10.060;2023-06-01T00:19:36;21.33;;;7.60;;
1682;SDS011;13252;53.596;10.060;2023-06-01T00:22:05;18.80;;;7.90;;
1682;SDS011;13252;53.596;10.060;2023-06-01T00:24:33;16.20;;;7.40;;
1682;SDS011;13252;53.596;10.060;2023-06-01T00:27:01;20.03;;;8.10;;
1682;SDS011;13252;53.596;10.060;2023-06-01T00:29:30;25.10;;;8.50;;
1682;SDS011;13252;53.596;10.060;2023-06-01T00:31:58;20.27;;;9.00;;
1682;SDS011;13252;53.596;10.060;2023-06-01T00:34:26;22.93;;;9.50;;
1682;SDS011;13252;53.596;10.060;2023-06-01T00:36:53;19.20;;;9.80;;
1682;SDS011;13252;53.596;10.060;2023-06-01T00:39:21;18.27;;;8.80;;
1682;SDS011;13252;53.596;10.060;2023-06-01T00:41:49;21.70;;;9.77;;
1682;SDS011;13252;53.596;10.060;2023-06-01T00:44:16;23.93;;;9.80;;
1682;SDS011;13252;53.596;10.060;2023-06-01T00:46:46;11.50;;;8.30;;
1682;SDS011;13252;53.596;10.060;2023-06-01T00:49:13;19.63;;;11.60;;
1682;SDS011;13252;53.596;10.060;2023-06-01T00:51:41;16.13;;;10.50;;
1682;SDS011;13252;53.596;10.060;2023-06-01T00:54:09;19.50;;;10.87;;
1682;SDS011;13252;53.596;10.060;2023-06-01T00:56:37;14.27;;;9.97;;
1682;SDS011;13252;53.596;10.060;2023-06-01T00:59:05;17.00;;;12.77;;
1682;SDS011;13252;53.596;10.060;2023-06-01T01:01:33;20.40;;;11.87;;
1682;SDS011;13252;53.596;10.060;2023-06-01T01:04:04;19.93;;;10.37;;
1682;SDS011;13252;53.596;10.060;2023-06-01T01:06:36;15.33;;;11.67;;
1682;SDS011;13252;53.596;10.060;2023-06-01T01:09:28;16.70;;;11.83;;
1682;SDS011;13252;53.596;10.060;2023-06-01T01:12:07;17.57;;;12.67;;
1682;SDS011;13252;53.596;10.060;2023-06-01T01:14:39;18.20;;;12.43;;
1682;SDS011;13252;53.596;10.060;2023-06-01T01:17:09;15.17;;;11.00;;
1682;SDS011;13252;53.596;10.060;2023-06-01T01:19:53;14.70;;;10.77;;
1682;SDS011;13252;53.596;10.060;2023-06-01T01:22:25;14.10;;;10.10;;
1682;SDS011;13252;53.596;10.060;2023-06-01T01:25:20;14.77;;;10.00;;
1682;SDS011;13252;53.596;10.060;2023-06-01T01:31:18;17.30;;;9.50;;
1682;SDS011;13252;53.596;10.060;2023-06-01T01:34:09;18.43;;;9.27;;
1682;SDS011;13252;53.596;10.060;2023-06-01T01:36:52;19.40;;;8.17;;
1682;SDS011;13252;53.596;10.060;2023-06-01T01:39:26;13.13;;;7.03;;
1682;SDS011;13252;53.596;10.060;2023-06-01T01:41:59;22.07;;;7.60;;
1682;SDS011;13252;53.596;10.060;2023-06-01T01:44:37;13.37;;;7.00;;
1682;SDS011;13252;53.596;10.060;2023-06-01T01:50:10;15.87;;;7.17;;
1682;SDS011;13252;53.596;10.060;2023-06-01T01:52:52;22.30;;;7.87;;
1682;SDS011;13252;53.596;10.060;2023-06-01T01:55:31;21.20;;;8.77;;
1682;SDS011;13252;53.596;10.060;2023-06-01T01:58:09;15.33;;;7.40;;
1682;SDS011;13252;53.596;10.060;2023-06-01T02:00:47;20.93;;;8.63;;
1682;SDS011;13252;53.596;10.060;2023-06-01T02:03:23;14.47;;;8.30;;
1682;SDS011;13252;53.596;10.060;2023-06-01T02:05:56;12.50;;;9.10;;
1682;SDS011;13252;53.596;10.060;2023-06-01T02:08:36;16.13;;;8.50;;
1682;SDS011;13252;53.596;10.060;2023-06-01T02:11:07;16.73;;;9.23;;
1682;SDS011;13252;53.596;10.060;2023-06-01T02:13:47;17.37;;;10.10;;
1682;SDS011;13252;53.596;10.060;2023-06-01T02:16:17;15.67;;;10.07;;
1682;SDS011;13252;53.596;10.060;2023-06-01T02:19:10;19.67;;;10.50;;
1682;SDS011;13252;53.596;10.060;2023-06-01T02:21:46;16.10;;;10.50;;
1682;SDS011;13252;53.596;10.060;2023-06-01T02:24:29;18.67;;;11.03;;
1682;SDS011;13252;53.596;10.060;2023-06-01T02:26:58;28.63;;;11.73;;
1682;SDS011;13252;53.596;10.060;2023-06-01T02:29:43;19.53;;;10.37;;
1682;SDS011;13252;53.596;10.060;2023-06-01T02:32:17;20.33;;;10.63;;
1682;SDS011;13252;53.596;10.060;2023-06-01T02:34:45;16.37;;;9.10;;
1682;SDS011;13252;53.596;10.060;2023-06-01T02:37:19;18.73;;;9.60;;
1682;SDS011;13252;53.596;10.060;2023-06-01T02:39:48;21.67;;;10.50;;
1682;SDS011;13252;53.596;10.060;2023-06-01T02:42:20;19.37;;;9.67;;
1682;SDS011;13252;53.596;10.060;2023-06-01T02:44:51;17.43;;;8.67;;
1682;SDS011;13252;53.596;10.060;2023-06-01T02:47:40;18.90;;;9.13;;
1682;SDS011;13252;53.596;10.060;2023-06-01T02:50:11;17.77;;;9.30;;
1682;SDS011;13252;53.596;10.060;2023-06-01T02:52:55;19.20;;;8.83;;
1682;SDS011;13252;53.596;10.060;2023-06-01T02:55:36;15.50;;;7.90;;
1682;SDS011;13252;53.596;10.060;2023-06-01T02:58:25;13.70;;;8.40;;
1682;SDS011;13252;53.596;10.060;2023-06-01T03:01:09;14.97;;;8.30;;
1682;SDS011;13252;53.596;10.060;2023-06-01T03:03:39;19.90;;;8.13;;
1682;SDS011;13252;53.596;10.060;2023-06-01T03:06:09;14.93;;;9.57;;
1682;SDS011;13252;53.596;10.060;2023-06-01T03:08:54;22.43;;;9.13;;
1682;SDS011;13252;53.596;10.060;2023-06-01T03:11:47;13.37;;;8.87;;
1682;SDS011;13252;53.596;10.060;2023-06-01T03:14:15;20.23;;;9.50;;
1682;SDS011;13252;53.596;10.060;2023-06-01T03:16:45;16.00;;;9.60;;
1682;SDS011;13252;53.596;10.060;2023-06-01T03:19:19;17.13;;;8.73;;
1682;SDS011;13252;53.596;10.060;2023-06-01T03:21:51;13.57;;;9.30;;
1682;SDS011;13252;53.596;10.060;2023-06-01T03:24:22;15.37;;;9.17;;
1682;SDS011;13252;53.596;10.060;2023-06-01T03:26:52;23.97;;;10.87;;
1682;SDS011;13252;53.596;10.060;2023-06-01T03:29:21;23.40;;;8.97;;
1682;SDS011;13252;53.596;10.060;2023-06-01T03:31:48;15.50;;;8.60;;
1682;SDS011;13252;53.596;10.060;2023-06-01T03:34:21;16.33;;;8.30;;
1682;SDS011;13252;53.596;10.060;2023-06-01T03:36:48;13.97;;;7.73;;
1682;SDS011;13252;53.596;10.060;2023-06-01T03:39:16;19.30;;;6.97;;
1682;SDS011;13252;53.596;10.060;2023-06-01T03:41:44;13.83;;;7.57;;
1682;SDS011;13252;53.596;10.060;2023-06-01T03:44:12;15.47;;;6.33;;
1682;SDS011;13252;53.596;10.060;2023-06-01T03:46:40;15.97;;;5.90;;
1682;SDS011;13252;53.596;10.060;2023-06-01T03:49:08;27.23;;;6.77;;
1682;SDS011;13252;53.596;10.060;2023-06-01T03:51:37;15.97;;;6.07;;
1682;SDS011;13252;53.596;10.060;2023-06-01T03:54:05;16.23;;;7.00;;
1682;SDS011;13252;53.596;10.060;2023-06-01T03:56:35;17.63;;;7.80;;
1682;SDS011;13252;53.596;10.060;2023-06-01T03:59:03;15.90;;;8.40;;
1682;SDS011;13252;53.596;10.060;2023-06-01T04:01:33;18.67;;;9.40;;
1682;SDS011;13252;53.596;10.060;2023-06-01T04:04:06;14.57;;;8.60;;
1682;SDS011;13252;53.596;10.060;2023-06-01T04:06:35;22.10;;;8.80;;
1682;SDS011;13252;53.596;10.060;2023-06-01T04:09:04;18.03;;;9.00;;
1682;SDS011;13252;53.596;10.060;2023-06-01T04:11:34;12.70;;;8.07;;
1682;SDS011;13252;53.596;10.060;2023-06-01T04:14:02;21.83;;;9.10;;
1682;SDS011;13252;53.596;10.060;2023-06-01T04:16:31;17.20;;;6.80;;
1682;SDS011;13252;53.596;10.060;2023-06-01T04:18:59;21.67;;;9.00;;
1682;SDS011;13252;53.596;10.060;2023-06-01T04:21:30;15.00;;;7.63;;
1682;SDS011;13252;53.596;10.060;2023-06-01T04:23:59;18.57;;;7.40;;
1682;SDS011;13252;53.596;10.060;2023-06-01T04:26:28;23.83;;;8.00;;
1682;SDS011;13252;53.596;10.060;2023-06-01T04:28:58;23.33;;;8.53;;
1682;SDS011;13252;53.596;10.060;2023-06-01T04:31:27;20.57;;;7.30;;
1682;SDS011;13252;53.596;10.060;2023-06-01T04:33:54;13.17;;;7.10;;
1682;SDS011;13252;53.596;10.060;2023-06-01T04:36:24;16.27;;;6.50;;
1682;SDS011;13252;53.596;10.060;2023-06-01T04:38:57;14.10;;;5.13;;
1682;SDS011;13252;53.596;10.060;2023-06-01T04:41:25;14.47;;;6.67;;
1682;SDS011;13252;53.596;10.060;2023-06-01T04:43:54;17.13;;;7.50;;
1682;SDS011;13252;53.596;10.060;2023-06-01T04:46:24;18.33;;;6.30;;
1682;SDS011;13252;53.596;10.060;2023-06-01T04:48:59;13.10;;;6.37;;
1682;SDS011;13252;53.596;10.060;2023-06-01T04:51:28;15.33;;;6.50;;
1682;SDS011;13252;53.596;10.060;2023-06-01T04:53:57;24.67;;;6.80;;
1682;SDS011;13252;53.596;10.060;2023-06-01T04:56:26;22.03;;;6.40;;
1682;SDS011;13252;53.596;10.060;2023-06-01T04:58:56;13.67;;;5.43;;
1682;SDS011;13252;53.596;10.060;2023-06-01T05:01:27;13.80;;;6.60;;
1682;SDS011;13252;53.596;10.060;2023-06-01T05:03:57;14.63;;;6.30;;
1682;SDS011;13252;53.596;10.060;2023-06-01T05:06:25;18.53;;;6.07;;
1682;SDS011;13252;53.596;10.060;2023-06-01T05:08:53;17.60;;;5.67;;
1682;SDS011;13252;53.596;10.060;2023-06-01T05:11:22;22.40;;;5.70;;
1682;SDS011;13252;53.596;10.060;2023-06-01T05:13:50;11.73;;;5.33;;
1682;SDS011;13252;53.596;10.060;2023-06-01T05:16:21;14.90;;;6.57;;
1682;SDS011;13252;53.596;10.060;2023-06-01T05:18:50;13.30;;;4.83;;
1682;SDS011;13252;53.596;10.060;2023-06-01T05:21:18;18.17;;;6.17;;
1682;SDS011;13252;53.596;10.060;2023-06-01T05:23:46;16.47;;;4.80;;
1682;SDS011;13252;53.596;10.060;2023-06-01T05:26:14;14.80;;;6.07;;
1682;SDS011;13252;53.596;10.060;2023-06-01T05:28:41;21.30;;;6.20;;
1682;SDS011;13252;53.596;10.060;2023-06-01T05:31:11;14.00;;;4.87;;
1682;SDS011;13252;53.596;10.060;2023-06-01T05:33:45;20.67;;;5.37;;
1682;SDS011;13252;53.596;10.060;2023-06-01T05:36:14;13.03;;;4.37;;
1682;SDS011;13252;53.596;10.060;2023-06-01T05:38:41;12.07;;;5.17;;
1682;SDS011;13252;53.596;10.060;2023-06-01T05:41:10;14.20;;;5.00;;
1682;SDS011;13252;53.596;10.060;2023-06-01T05:43:39;11.73;;;4.33;;
1682;SDS011;13252;53.596;10.060;2023-06-01T05:46:07;12.53;;;5.47;;
1682;SDS011;13252;53.596;10.060;2023-06-01T05:48:36;12.00;;;4.33;;
1682;SDS011;13252;53.596;10.060;2023-06-01T05:51:08;15.00;;;5.60;;
1682;SDS011;13252;53.596;10.060;2023-06-01T05:53:36;20.90;;;5.40;;
1682;SDS011;13252;53.596;10.060;2023-06-01T05:56:06;10.60;;;4.20;;
1682;SDS011;13252;53.596;10.060;2023-06-01T05:58:34;17.10;;;5.07;;
1682;SDS011;13252;53.596;10.060;2023-06-01T06:01:01;16.30;;;4.80;;
1682;SDS011;13252;53.596;10.060;2023-06-01T06:03:30;16.80;;;5.50;;
1682;SDS011;13252;53.596;10.060;2023-06-01T06:05:57;16.97;;;5.53;;
1682;SDS011;13252;53.596;10.060;2023-06-01T06:08:26;18.73;;;4.27;;
1682;SDS011;13252;53.596;10.060;2023-06-01T06:10:54;15.33;;;5.13;;
1682;SDS011;13252;53.596;10.060;2023-06-01T06:13:22;13.83;;;4.23;;
1682;SDS011;13252;53.596;10.060;2023-06-01T06:15:51;13.50;;;4.57;;
1682;SDS011;13252;53.596;10.060;2023-06-01T06:18:18;14.13;;;5.07;;
1682;SDS011;13252;53.596;10.060;2023-06-01T06:20:46;16.53;;;4.67;;
1682;SDS011;13252;53.596;10.060;2023-06-01T06:23:14;23.67;;;4.50;;
1682;SDS011;13252;53.596;10.060;2023-06-01T06:25:43;15.20;;;4.80;;
1682;SDS011;13252;53.596;10.060;2023-06-01T06:28:12;11.40;;;4.90;;
1682;SDS011;13252;53.596;10.060;2023-06-01T06:30:40;11.30;;;4.57;;
1682;SDS011;13252;53.596;10.060;2023-06-01T06:33:08;13.30;;;5.70;;
1682;SDS011;13252;53.596;10.060;2023-06-01T06:35:40;17.13;;;4.50;;
1682;SDS011;13252;53.596;10.060;2023-06-01T06:38:09;12.73;;;4.30;;
1682;SDS011;13252;53.596;10.060;2023-06-01T06:40:39;13.07;;;4.23;;
1682;SDS011;13252;53.596;10.060;2023-06-01T06:43:08;12.13;;;4.57;;
1682;SDS011;13252;53.596;10.060;2023-06-01T06:45:36;18.30;;;6.67;;
1682;SDS011;13252;53.596;10.060;2023-06-01T06:48:03;16.50;;;4.53;;
1682;SDS011;13252;53.596;10.060;2023-06-01T06:50:31;11.30;;;4.07;;
1682;SDS011;13252;53.596;10.060;2023-06-01T06:52:59;11.30;;;3.67;;
1682;SDS011;13252;53.596;10.060;2023-06-01T06:55:27;13.30;;;4.50;;
1682;SDS011;13252;53.596;10.060;2023-06-01T06:57:55;10.30;;;3.90;;
1682;SDS011;13252;53.596;10.060;2023-06-01T07:00:24;9.57;;;3.30;;
1682;SDS011;13252;53.596;10.060;2023-06-01T07:02:52;16.20;;;4.67;;
1682;SDS011;13252;53.596;10.060;2023-06-01T07:05:20;18.33;;;3.80;;
1682;SDS011;13252;53.596;10.060;2023-06-01T07:07:47;12.53;;;4.37;;
1682;SDS011;13252;53.596;10.060;2023-06-01T07:10:15;17.80;;;5.30;;
1682;SDS011;13252;53.596;10.060;2023-06-01T07:12:43;11.90;;;3.90;;
1682;SDS011;13252;53.596;10.060;2023-06-01T07:15:11;17.07;;;3.70;;
1682;SDS011;13252;53.596;10.060;2023-06-01T07:17:41;17.27;;;4.00;;
1682;SDS011;13252;53.596;10.060;2023-06-01T07:20:09;12.80;;;3.17;;
1682;SDS011;13252;53.596;10.060;2023-06-01T07:22:38;14.23;;;3.10;;
1682;SDS011;13252;53.596;10.060;2023-06-01T07:25:06;12.67;;;3.13;;
1682;SDS011;13252;53.596;10.060;2023-06-01T07:27:35;10.97;;;3.27;;
1682;SDS011;13252;53.596;10.060;2023-06-01T07:30:02;7.80;;;3.17;;
1682;SDS011;13252;53.596;10.060;2023-06-01T07:32:31;13.20;;;3.40;;
1682;SDS011;13252;53.596;10.060;2023-06-01T07:35:01;12.70;;;3.40;;
1682;SDS011;13252;53.596;10.060;2023-06-01T07:37:31;15.70;;;3.70;;
1682;SDS011;13252;53.596;10.060;2023-06-01T07:39:58;19.40;;;4.40;;
1682;SDS011;13252;53.596;10.060;2023-06-01T07:42:31;5.70;;;3.00;;
1682;SDS011;13252;53.596;10.060;2023-06-01T07:44:58;12.13;;;3.60;;
1682;SDS011;13252;53.596;10.060;2023-06-01T07:47:26;11.97;;;3.63;;
1682;SDS011;13252;53.596;10.060;2023-06-01T07:49:55;9.43;;;3.80;;
1682;SDS011;13252;53.596;10.060;2023-06-01T07:52:24;12.80;;;3.23;;
1682;SDS011;13252;53.596;10.060;2023-06-01T07:54:52;11.47;;;4.57;;
1682;SDS011;13252;53.596;10.060;2023-06-01T07:57:19;14.93;;;4.10;;
1682;SDS011;13252;53.596;10.060;2023-06-01T07:59:47;16.43;;;3.70;;
1682;SDS011;13252;53.596;10.060;2023-06-01T08:02:14;18.23;;;3.57;;
1682;SDS011;13252;53.596;10.060;2023-06-01T08:04:42;10.87;;;3.27;;
1682;SDS011;13252;53.596;10.060;2023-06-01T08:07:10;19.30;;;4.37;;
1682;SDS011;13252;53.596;10.060;2023-06-01T08:09:41;9.30;;;3.97;;
1682;SDS011;13252;53.596;10.060;2023-06-01T08:12:09;7.57;;;3.33;;
1682;SDS011;13252;53.596;10.060;2023-06-01T08:14:38;15.20;;;4.10;;
1682;SDS011;13252;53.596;10.060;2023-06-01T08:17:07;19.57;;;4.03;;
1682;SDS011;13252;53.596;10.060;2023-06-01T08:19:38;16.57;;;4.60;;
1682;SDS011;13252;53.596;10.060;2023-06-01T08:22:08;16.50;;;4.90;;
1682;SDS011;13252;53.596;10.060;2023-06-01T08:24:38;13.47;;;4.57;;
1682;SDS011;13252;53.596;10.060;2023-06-01T08:27:16;10.27;;;4.20;;
1682;SDS011;13252;53.596;10.060;2023-06-01T08:29:46;13.60;;;4.17;;
1682;SDS011;13252;53.596;10.060;2023-06-01T08:32:14;11.87;;;4.83;;
1682;SDS011;13252;53.596;10.060;2023-06-01T08:34:43;11.97;;;4.93;;
1682;SDS011;13252;53.596;10.060;2023-06-01T08:37:11;16.80;;;5.10;;
1682;SDS011;13252;53.596;10.060;2023-06-01T08:39:39;16.97;;;5.60;;
1682;SDS011;13252;53.596;10.060;2023-06-01T08:42:08;14.47;;;4.43;;
1682;SDS011;13252;53.596;10.060;2023-06-01T08:44:40;14.47;;;4.70;;
1682;SDS011;13252;53.596;10.060;2023-06-01T08:47:08;13.30;;;3.50;;
1682;SDS011;13252;53.596;10.060;2023-06-01T08:49:37;14.97;;;4.50;;
1682;SDS011;13252;53.596;10.060;2023-06-01T08:52:09;17.33;;;4.10;;
1682;SDS011;13252;53.596;10.060;2023-06-01T08:54:39;9.23;;;4.33;;
1682;SDS011;13252;53.596;10.060;2023-06-01T08:57:07;9.90;;;3.33;;
1682;SDS011;13252;53.596;10.060;2023-06-01T08:59:34;14.53;;;4.23;;
1682;SDS011;13252;53.596;10.060;2023-06-01T09:02:04;14.00;;;4.40;;
1682;SDS011;13252;53.596;10.060;2023-06-01T09:04:32;14.80;;;3.90;;
1682;SDS011;13252;53.596;10.060;2023-06-01T09:07:03;12.63;;;4.03;;
1682;SDS011;13252;53.596;10.060;2023-06-01T09:09:31;10.27;;;3.90;;
1682;SDS011;13252;53.596;10.060;2023-06-01T09:12:15;10.97;;;3.70;;
1682;SDS011;13252;53.596;10.060;2023-06-01T09:14:44;16.90;;;4.00;;
1682;SDS011;13252;53.596;10.060;2023-06-01T09:17:13;8.90;;;3.40;;
1682;SDS011;13252;53.596;10.060;2023-06-01T09:19:42;8.60;;;3.03;;
1682;SDS011;13252;53.596;10.060;2023-06-01T09:22:11;14.90;;;4.00;;
1682;SDS011;13252;53.596;10.060;2023-06-01T09:24:39;18.10;;;4.70;;
1682;SDS011;13252;53.596;10.060;2023-06-01T09:27:07;11.87;;;3.40;;
1682;SDS011;13252;53.596;10.060;2023-06-01T09:29:35;14.70;;;4.37;;
1682;SDS011;13252;53.596;10.060;2023-06-01T09:32:03;17.03;;;4.60;;
1682;SDS011;13252;53.596;10.060;2023-06-01T09:34:33;17.30;;;4.10;;
1682;SDS011;13252;53.596;10.060;2023-06-01T09:37:11;11.33;;;3.70;;
1682;SDS011;13252;53.596;10.060;2023-06-01T09:39:40;11.23;;;4.03;;
1682;SDS011;13252;53.596;10.060;2023-06-01T09:42:07;9.20;;;3.20;;
1682;SDS011;13252;53.596;10.060;2023-06-01T09:44:36;12.83;;;3.50;;
1682;SDS011;13252;53.596;10.060;2023-06-01T09:47:05;8.90;;;3.50;;
1682;SDS011;13252;53.596;10.060;2023-06-01T09:49:37;17.87;;;4.40;;
1682;SDS011;13252;53.596;10.060;2023-06-01T09:52:10;20.43;;;5.40;;
1682;SDS011;13252;53.596;10.060;2023-06-01T09:54:41;12.50;;;4.70;;
1682;SDS011;13252;53.596;10.060;2023-06-01T09:57:10;15.40;;;6.10;;
1682;SDS011;13252;53.596;10.060;2023-06-01T09:59:40;12.67;;;4.47;;
1682;SDS011;13252;53.596;10.060;2023-06-01T10:02:11;12.93;;;3.90;;
1682;SDS011;13252;53.596;10.060;2023-06-01T10:04:42;13.30;;;4.00;;
1682;SDS011;13252;53.596;10.060;2023-06-01T10:07:12;14.27;;;4.13;;
1682;SDS011;13252;53.596;10.060;2023-06-01T10:09:41;17.03;;;3.60;;
1682;SDS011;13252;53.596;10.060;2023-06-01T10:12:09;10.90;;;3.30;;
1682;SDS011;13252;53.596;10.060;2023-06-01T10:14:37;14.07;;;4.67;;
1682;SDS011;13252;53.596;10.060;2023-06-01T10:17:06;10.90;;;3.17;;
1682;SDS011;13252;53.596;10.060;2023-06-01T10:19:35;13.97;;;4.20;;
1682;SDS011;13252;53.596;10.060;2023-06-01T10:22:05;15.97;;;4.60;;
1682;SDS011;13252;53.596;10.060;2023-06-01T10:24:34;9.03;;;4.03;;
1682;SDS011;13252;53.596;10.060;2023-06-01T10:27:10;23.23;;;4.67;;
1682;SDS011;13252;53.596;10.060;2023-06-01T10:29:42;10.70;;;3.50;;
1682;SDS011;13252;53.596;10.060;2023-06-01T10:35:50;21.97;;;6.80;;
1682;SDS011;13252;53.596;10.060;2023-06-01T10:38:32;12.03;;;3.57;;
1682;SDS011;13252;53.596;10.060;2023-06-01T10:43:54;14.43;;;3.80;;
1682;SDS011;13252;53.596;10.060;2023-06-01T10:46:41;10.80;;;3.80;;
1682;SDS011;13252;53.596;10.060;2023-06-01T10:49:11;12.10;;;3.97;;
1682;SDS011;13252;53.596;10.060;2023-06-01T10:51:39;12.00;;;3.57;;
1682;SDS011;13252;53.596;10.060;2023-06-01T10:54:27;14.93;;;4.03;;
1682;SDS011;13252;53.596;10.060;2023-06-01T11:00:10;18.23;;;3.80;;
1682;SDS011;13252;53.596;10.060;2023-06-01T11:02:43;11.30;;;3.67;;
1682;SDS011;13252;53.596;10.060;2023-06-01T11:11:16;17.23;;;3.73;;
1682;SDS011;13252;53.596;10.060;2023-06-01T11:16:32;11.83;;;3.10;;
1682;SDS011;13252;53.596;10.060;2023-06-01T11:19:01;12.73;;;3.33;;
1682;SDS011;13252;53.596;10.060;2023-06-01T11:21:31;17.20;;;3.37;;
1682;SDS011;13252;53.596;10.060;2023-06-01T11:24:04;12.17;;;4.10;;
1682;SDS011;13252;53.596;10.060;2023-06-01T11:26:38;12.70;;;3.90;;
1682;SDS011;13252;53.596;10.060;2023-06-01T11:29:08;10.33;;;3.30;;
1682;SDS011;13252;53.596;10.060;2023-06-01T11:31:39;14.83;;;3.47;;
1682;SDS011;13252;53.596;10.060;2023-06-01T11:34:09;9.03;;;3.40;;
1682;SDS011;13252;53.596;10.060;2023-06-01T11:36:38;12.43;;;3.90;;
1682;SDS011;13252;53.596;10.060;2023-06-01T11:39:15;7.47;;;3.37;;
1682;SDS011;13252;53.596;10.060;2023-06-01T11:42:03;9.37;;;3.70;;
1682;SDS011;13252;53.596;10.060;2023-06-01T11:44:35;11.03;;;3.00;;
1682;SDS011;13252;53.596;10.060;2023-06-01T11:47:04;11.53;;;2.80;;
1682;SDS011;13252;53.596;10.060;2023-06-01T11:49:39;10.07;;;2.80;;
1682;SDS011;13252;53.596;10.060;2023-06-01T11:52:09;10.30;;;2.83;;
1682;SDS011;13252;53.596;10.060;2023-06-01T11:54:37;8.60;;;3.13;;
1682;SDS011;13252;53.596;10.060;2023-06-01T11:57:06;11.07;;;3.30;;
1682;SDS011;13252;53.596;10.060;2023-06-01T11:59:37;10.93;;;2.87;;
1682;SDS011;13252;53.596;10.060;2023-06-01T12:02:15;11.97;;;3.27;;
1682;SDS011;13252;53.596;10.060;2023-06-01T12:04:53;14.20;;;2.83;;
1682;SDS011;13252;53.596;10.060;2023-06-01T12:07:23;12.83;;;3.03;;
1682;SDS011;13252;53.596;10.060;2023-06-01T12:09:51;9.13;;;2.50;;
1682;SDS011;13252;53.596;10.060;2023-06-01T12:12:22;8.50;;;2.73;;
1682;SDS011;13252;53.596;10.060;2023-06-01T12:14:51;12.67;;;3.27;;
1682;SDS011;13252;53.596;10.060;2023-06-01T12:17:19;10.17;;;2.40;;
1682;SDS011;13252;53.596;10.060;2023-06-01T12:19:47;10.37;;;2.23;;
1682;SDS011;13252;53.596;10.060;2023-06-01T12:22:16;9.00;;;2.27;;
1682;SDS011;13252;53.596;10.060;2023-06-01T12:24:44;7.07;;;2.40;;
1682;SDS011;13252;53.596;10.060;2023-06-01T12:27:12;7.33;;;2.10;;
1682;SDS011;13252;53.596;10.060;2023-06-01T12:29:43;7.80;;;1.90;;
1682;SDS011;13252;53.596;10.060;2023-06-01T12:32:14;12.17;;;2.70;;
1682;SDS011;13252;53.596;10.060;2023-06-01T12:35:01;17.47;;;2.90;;
1682;SDS011;13252;53.596;10.060;2023-06-01T12:37:30;12.53;;;2.70;;
1682;SDS011;13252;53.596;10.060;2023-06-01T12:39:57;15.63;;;2.87;;
1682;SDS011;13252;53.596;10.060;2023-06-01T12:42:35;9.83;;;2.17;;
1682;SDS011;13252;53.596;10.060;2023-06-01T12:45:06;19.70;;;2.70;;
1682;SDS011;13252;53.596;10.060;2023-06-01T12:47:35;14.10;;;2.73;;
1682;SDS011;13252;53.596;10.060;2023-06-01T12:50:05;12.97;;;2.33;;
1682;SDS011;13252;53.596;10.060;2023-06-01T12:52:33;14.63;;;2.50;;
1682;SDS011;13252;53.596;10.060;2023-06-01T12:55:01;11.73;;;2.87;;
1682;SDS011;13252;53.596;10.060;2023-06-01T12:57:30;19.03;;;2.80;;
1682;SDS011;13252;53.596;10.060;2023-06-01T12:59:58;11.30;;;1.97;;
1682;SDS011;13252;53.596;10.060;2023-06-01T13:02:27;9.63;;;2.30;;
1682;SDS011;13252;53.596;10.060;2023-06-01T13:04:55;10.73;;;2.67;;
1682;SDS011;13252;53.596;10.060;2023-06-01T13:07:24;8.50;;;2.10;;
1682;SDS011;13252;53.596;10.060;2023-06-01T13:09:52;11.57;;;2.33;;
1682;SDS011;13252;53.596;10.060;2023-06-01T13:12:20;16.40;;;2.83;;
1682;SDS011;13252;53.596;10.060;2023-06-01T13:14:47;11.80;;;2.83;;
1682;SDS011;13252;53.596;10.060;2023-06-01T13:17:16;15.10;;;3.17;;
1682;SDS011;13252;53.596;10.060;2023-06-01T13:19:46;9.87;;;2.40;;
1682;SDS011;13252;53.596;10.060;2023-06-01T13:22:14;21.17;;;3.23;;
1682;SDS011;13252;53.596;10.060;2023-06-01T13:24:42;15.43;;;3.57;;
1682;SDS011;13252;53.596;10.060;2023-06-01T13:27:12;27.17;;;2.67;;
1682;SDS011;13252;53.596;10.060;2023-06-01T13:29:40;16.97;;;3.07;;
1682;SDS011;13252;53.596;10.060;2023-06-01T13:32:08;17.97;;;3.87;;
1682;SDS011;13252;53.596;10.060;2023-06-01T13:34:38;13.17;;;2.70;;
1682;SDS011;13252;53.596;10.060;2023-06-01T13:37:08;31.27;;;3.40;;
1682;SDS011;13252;53.596;10.060;2023-06-01T13:39:36;18.23;;;2.90;;
1682;SDS011;13252;53.596;10.060;2023-06-01T13:42:04;13.50;;;3.03;;
1682;SDS011;13252;53.596;10.060;2023-06-01T13:44:33;8.70;;;2.57;;
1682;SDS011;13252;53.596;10.060;2023-06-01T13:47:00;18.37;;;3.33;;
1682;SDS011;13252;53.596;10.060;2023-06-01T13:49:29;14.10;;;3.30;;
1682;SDS011;13252;53.596;10.060;2023-06-01T13:51:56;17.77;;;3.50;;
1682;SDS011;13252;53.596;10.060;2023-06-01T13:54:26;12.10;;;2.80;;
1682;SDS011;13252;53.596;10.060;2023-06-01T13:56:54;18.30;;;3.50;;
1682;SDS011;13252;53.596;10.060;2023-06-01T13:59:22;15.10;;;2.93;;
1682;SDS011;13252;53.596;10.060;2023-06-01T14:01:50;14.23;;;3.00;;
1682;SDS011;13252;53.596;10.060;2023-06-01T14:04:18;9.63;;;2.87;;
1682;SDS011;13252;53.596;10.060;2023-06-01T14:06:45;21.90;;;3.50;;
1682;SDS011;13252;53.596;10.060;2023-06-01T14:09:14;11.90;;;2.53;;
1682;SDS011;13252;53.596;10.060;2023-06-01T14:11:43;14.77;;;2.70;;
1682;SDS011;13252;53.596;10.060;2023-06-01T14:14:11;13.50;;;2.83;;
1682;SDS011;13252;53.596;10.060;2023-06-01T14:16:38;10.13;;;2.07;;
1682;SDS011;13252;53.596;10.060;2023-06-01T14:19:06;19.43;;;3.27;;
1682;SDS011;13252;53.596;10.060;2023-06-01T14:21:34;11.67;;;2.40;;
1682;SDS011;13252;53.596;10.060;2023-06-01T14:24:02;13.63;;;2.50;;
1682;SDS011;13252;53.596;10.060;2023-06-01T14:26:30;12.60;;;2.53;;
1682;SDS011;13252;53.596;10.060;2023-06-01T14:28:59;15.33;;;3.30;;
1682;SDS011;13252;53.596;10.060;2023-06-01T14:31:27;19.20;;;3.20;;
1682;SDS011;13252;53.596;10.060;2023-06-01T14:33:54;35.53;;;3.00;;
1682;SDS011;13252;53.596;10.060;2023-06-01T14:36:22;15.90;;;2.70;;
1682;SDS011;13252;53.596;10.060;2023-06-01T14:39:10;16.70;;;2.60;;
1682;SDS011;13252;53.596;10.060;2023-06-01T14:41:38;14.83;;;2.50;;
1682;SDS011;13252;53.596;10.060;2023-06-01T14:44:11;18.47;;;3.27;;
1682;SDS011;13252;53.596;10.060;2023-06-01T14:46:40;20.33;;;3.70;;
1682;SDS011;13252;53.596;10.060;2023-06-01T14:49:08;27.13;;;3.97;;
1682;SDS011;13252;53.596;10.060;2023-06-01T14:51:35;12.17;;;2.83;;
1682;SDS011;13252;53.596;10.060;2023-06-01T14:54:03;17.70;;;3.33;;
1682;SDS011;13252;53.596;10.060;2023-06-01T14:56:31;24.37;;;4.50;;
1682;SDS011;13252;53.596;10.060;2023-06-01T14:58:59;9.87;;;2.20;;
1682;SDS011;13252;53.596;10.060;2023-06-01T15:01:28;15.20;;;2.63;;
1682;SDS011;13252;53.596;10.060;2023-06-01T15:03:55;16.20;;;4.40;;
1682;SDS011;13252;53.596;10.060;2023-06-01T15:06:23;24.07;;;3.40;;
1682;SDS011;13252;53.596;10.060;2023-06-01T15:08:50;16.10;;;3.67;;
1682;SDS011;13252;53.596;10.060;2023-06-01T15:11:18;10.93;;;3.03;;
1682;SDS011;13252;53.596;10.060;2023-06-01T15:13:46;20.77;;;4.93;;
1682;SDS011;13252;53.596;10.060;2023-06-01T15:16:14;21.70;;;6.70;;
1682;SDS011;13252;53.596;10.060;2023-06-01T15:18:43;19.30;;;4.10;;
1682;SDS011;13252;53.596;10.060;2023-06-01T15:21:11;15.47;;;2.70;;